Vremea mâine în Filiași - Romania

Vrei sa afli care e starea vremii acum in Mehedinti - Romania? Dorim sa iti furnizam starea vremii pentru Mehedinti - Romania. Starea vremii Mehedinti - Romania pentru astazi.

Vremea mâine în Filiași

Temperatura minimă:
11 °C

Temperatura maximă:
23.4 °C

Mâine va fi: Senin
Precipitații: 0 %
Umiditate: 61%
Viteza maximă vânt mâine:
12.6 km/h

Evoluția vremii in Filiași pe ore mâine

Ora: 03:00
Temperatura: °C
Sansa de precipitatii: %
Ora Descriere Temp Se simte Precipitatii Umiditate Vant
00:00Senin13.6°13.6°0%67%E 1.8 KM/H
01:00Senin13°13.5°0%70%ENE 4 KM/H
02:00Senin12.5°13°0%72%NE 3.6 KM/H
03:00Senin12.1°12.5°0%74%NE 4 KM/H
04:00Senin11.8°11.9°0%75%NE 4.7 KM/H
05:00Senin11.4°11.6°0%77%NE 4.3 KM/H
06:00Senin11°11.4°0%79%ENE 3.6 KM/H
07:00Senin11.9°11.9°0%78%ENE 2.9 KM/H
08:00Senin14.3°14.4°0%70%E 2.2 KM/H
09:00Senin16.7°16.7°0%63%SSE 2.5 KM/H
10:00Senin18.5°18.5°0%57%SW 5.8 KM/H
11:00Senin19.9°19.9°0%53%SW 7.9 KM/H
12:00Senin21.1°21.1°0%48%SW 8.6 KM/H
13:00Senin22.1°24.3°0%45%SW 9.4 KM/H
14:00Senin22.7°24.4°0%43%SW 9.7 KM/H
15:00Senin23.3°24.5°0%41%SW 10.1 KM/H
16:00Senin23.4°24.6°0%41%SW 10.1 KM/H
17:00Senin23.2°24.5°0%42%SW 12.6 KM/H
18:00Senin22.8°24.5°0%46%SW 10.8 KM/H
19:00Senin21.7°21.7°0%57%SSW 7.2 KM/H
20:00Senin19°19°0%63%S 4.3 KM/H
21:00Senin16.8°16.8°0%66%S 3.2 KM/H
22:00Senin15.9°15.9°0%67%SSE 2.5 KM/H
23:00Senin15.4°15.4°0%68%E 2.2 KM/H




tutorials